sensor_id;sensor_type;location;lat;lon;timestamp;P1;durP1;ratioP1;P2;durP2;ratioP2
24147;SDS011;12309;51.450;-2.624;2023-02-28T00:00:22;9.37;;;1.73;;
24147;SDS011;12309;51.450;-2.624;2023-02-28T00:02:48;9.53;;;1.93;;
24147;SDS011;12309;51.450;-2.624;2023-02-28T00:05:16;9.10;;;2.30;;
24147;SDS011;12309;51.450;-2.624;2023-02-28T00:07:43;9.43;;;1.90;;
24147;SDS011;12309;51.450;-2.624;2023-02-28T00:10:10;7.70;;;1.97;;
24147;SDS011;12309;51.450;-2.624;2023-02-28T00:12:37;13.73;;;2.07;;
24147;SDS011;12309;51.450;-2.624;2023-02-28T00:15:10;10.50;;;2.27;;
24147;SDS011;12309;51.450;-2.624;2023-02-28T00:17:36;7.03;;;1.83;;
24147;SDS011;12309;51.450;-2.624;2023-02-28T00:20:02;9.47;;;2.10;;
24147;SDS011;12309;51.450;-2.624;2023-02-28T00:22:40;11.77;;;2.53;;
24147;SDS011;12309;51.450;-2.624;2023-02-28T00:25:08;12.63;;;2.87;;
24147;SDS011;12309;51.450;-2.624;2023-02-28T00:27:34;13.17;;;3.17;;
24147;SDS011;12309;51.450;-2.624;2023-02-28T00:30:01;13.70;;;3.43;;
24147;SDS011;12309;51.450;-2.624;2023-02-28T00:32:27;12.10;;;3.47;;
24147;SDS011;12309;51.450;-2.624;2023-02-28T00:34:52;19.83;;;6.20;;
24147;SDS011;12309;51.450;-2.624;2023-02-28T00:37:18;19.97;;;7.97;;
24147;SDS011;12309;51.450;-2.624;2023-02-28T00:39:43;26.10;;;14.63;;
24147;SDS011;12309;51.450;-2.624;2023-02-28T00:42:09;28.63;;;16.97;;
24147;SDS011;12309;51.450;-2.624;2023-02-28T00:44:35;29.73;;;15.60;;
24147;SDS011;12309;51.450;-2.624;2023-02-28T00:47:00;22.57;;;12.03;;
24147;SDS011;12309;51.450;-2.624;2023-02-28T00:49:26;21.63;;;10.00;;
24147;SDS011;12309;51.450;-2.624;2023-02-28T00:51:53;17.50;;;8.53;;
24147;SDS011;12309;51.450;-2.624;2023-02-28T00:54:20;13.10;;;6.50;;
24147;SDS011;12309;51.450;-2.624;2023-02-28T00:56:46;14.60;;;5.33;;
24147;SDS011;12309;51.450;-2.624;2023-02-28T00:59:12;15.10;;;5.90;;
24147;SDS011;12309;51.450;-2.624;2023-02-28T01:01:39;18.00;;;5.73;;
24147;SDS011;12309;51.450;-2.624;2023-02-28T01:04:05;12.87;;;4.93;;
24147;SDS011;12309;51.450;-2.624;2023-02-28T01:06:31;11.03;;;4.47;;
24147;SDS011;12309;51.450;-2.624;2023-02-28T01:08:57;13.73;;;4.33;;
24147;SDS011;12309;51.450;-2.624;2023-02-28T01:11:23;10.53;;;4.17;;
24147;SDS011;12309;51.450;-2.624;2023-02-28T01:13:49;7.73;;;4.13;;
24147;SDS011;12309;51.450;-2.624;2023-02-28T01:16:15;10.40;;;3.63;;
24147;SDS011;12309;51.450;-2.624;2023-02-28T01:18:40;9.43;;;3.70;;
24147;SDS011;12309;51.450;-2.624;2023-02-28T01:21:07;13.17;;;3.17;;
24147;SDS011;12309;51.450;-2.624;2023-02-28T01:23:37;13.30;;;3.50;;
24147;SDS011;12309;51.450;-2.624;2023-02-28T01:26:07;9.30;;;3.50;;
24147;SDS011;12309;51.450;-2.624;2023-02-28T01:28:34;9.07;;;3.63;;
24147;SDS011;12309;51.450;-2.624;2023-02-28T01:31:00;11.47;;;3.73;;
24147;SDS011;12309;51.450;-2.624;2023-02-28T01:33:25;9.90;;;3.73;;
24147;SDS011;12309;51.450;-2.624;2023-02-28T01:35:58;13.10;;;3.70;;
24147;SDS011;12309;51.450;-2.624;2023-02-28T01:38:24;14.57;;;3.87;;
24147;SDS011;12309;51.450;-2.624;2023-02-28T01:40:50;10.40;;;3.60;;
24147;SDS011;12309;51.450;-2.624;2023-02-28T01:43:19;9.13;;;3.13;;
24147;SDS011;12309;51.450;-2.624;2023-02-28T01:45:52;13.83;;;3.60;;
24147;SDS011;12309;51.450;-2.624;2023-02-28T01:48:20;8.20;;;3.33;;
24147;SDS011;12309;51.450;-2.624;2023-02-28T01:50:51;10.43;;;4.43;;
24147;SDS011;12309;51.450;-2.624;2023-02-28T01:53:19;10.40;;;3.93;;
24147;SDS011;12309;51.450;-2.624;2023-02-28T01:55:49;13.97;;;3.97;;
24147;SDS011;12309;51.450;-2.624;2023-02-28T01:58:17;17.97;;;4.30;;
24147;SDS011;12309;51.450;-2.624;2023-02-28T02:00:43;14.40;;;4.10;;
24147;SDS011;12309;51.450;-2.624;2023-02-28T02:03:09;16.83;;;5.47;;
24147;SDS011;12309;51.450;-2.624;2023-02-28T02:05:38;11.57;;;4.70;;
24147;SDS011;12309;51.450;-2.624;2023-02-28T02:08:07;9.50;;;4.00;;
24147;SDS011;12309;51.450;-2.624;2023-02-28T02:10:50;18.00;;;5.10;;
24147;SDS011;12309;51.450;-2.624;2023-02-28T02:16:23;9.93;;;2.93;;
24147;SDS011;12309;51.450;-2.624;2023-02-28T02:41:46;8.40;;;2.10;;
24147;SDS011;12309;51.450;-2.624;2023-02-28T02:44:24;7.03;;;1.70;;
24147;SDS011;12309;51.450;-2.624;2023-02-28T02:46:55;12.07;;;2.37;;
24147;SDS011;12309;51.450;-2.624;2023-02-28T02:49:32;9.87;;;1.97;;
24147;SDS011;12309;51.450;-2.624;2023-02-28T02:52:06;5.10;;;1.70;;
24147;SDS011;12309;51.450;-2.624;2023-02-28T02:54:35;6.50;;;1.70;;
24147;SDS011;12309;51.450;-2.624;2023-02-28T02:57:05;8.97;;;2.07;;
24147;SDS011;12309;51.450;-2.624;2023-02-28T02:59:33;6.33;;;2.30;;
24147;SDS011;12309;51.450;-2.624;2023-02-28T03:02:03;8.53;;;1.80;;
24147;SDS011;12309;51.450;-2.624;2023-02-28T03:04:32;5.20;;;2.03;;
24147;SDS011;12309;51.450;-2.624;2023-02-28T03:07:03;8.53;;;2.27;;
24147;SDS011;12309;51.450;-2.624;2023-02-28T03:09:28;6.17;;;2.00;;
24147;SDS011;12309;51.450;-2.624;2023-02-28T03:11:57;11.97;;;2.23;;
24147;SDS011;12309;51.450;-2.624;2023-02-28T03:14:35;5.43;;;1.80;;
24147;SDS011;12309;51.450;-2.624;2023-02-28T03:23:19;7.00;;;2.17;;
24147;SDS011;12309;51.450;-2.624;2023-02-28T03:25:56;6.43;;;2.20;;
24147;SDS011;12309;51.450;-2.624;2023-02-28T03:31:20;5.30;;;1.60;;
24147;SDS011;12309;51.450;-2.624;2023-02-28T03:33:51;8.70;;;2.10;;
24147;SDS011;12309;51.450;-2.624;2023-02-28T03:36:27;7.07;;;2.10;;
24147;SDS011;12309;51.450;-2.624;2023-02-28T03:38:58;9.67;;;2.20;;
24147;SDS011;12309;51.450;-2.624;2023-02-28T03:41:36;6.27;;;1.80;;
24147;SDS011;12309;51.450;-2.624;2023-02-28T03:44:09;11.43;;;1.97;;
24147;SDS011;12309;51.450;-2.624;2023-02-28T03:46:41;5.40;;;1.83;;
24147;SDS011;12309;51.450;-2.624;2023-02-28T03:49:16;4.97;;;1.70;;
24147;SDS011;12309;51.450;-2.624;2023-02-28T03:51:46;6.27;;;2.27;;
24147;SDS011;12309;51.450;-2.624;2023-02-28T03:54:16;8.33;;;2.30;;
24147;SDS011;12309;51.450;-2.624;2023-02-28T03:56:57;7.83;;;2.00;;
24147;SDS011;12309;51.450;-2.624;2023-02-28T03:59:53;13.20;;;2.37;;
24147;SDS011;12309;51.450;-2.624;2023-02-28T04:02:24;11.50;;;2.30;;
24147;SDS011;12309;51.450;-2.624;2023-02-28T04:04:50;6.93;;;2.83;;
24147;SDS011;12309;51.450;-2.624;2023-02-28T04:07:16;5.37;;;2.87;;
24147;SDS011;12309;51.450;-2.624;2023-02-28T04:09:42;8.13;;;2.73;;
24147;SDS011;12309;51.450;-2.624;2023-02-28T04:12:08;7.77;;;2.90;;
24147;SDS011;12309;51.450;-2.624;2023-02-28T04:14:34;10.23;;;3.30;;
24147;SDS011;12309;51.450;-2.624;2023-02-28T04:16:59;6.27;;;2.57;;
24147;SDS011;12309;51.450;-2.624;2023-02-28T04:19:25;7.60;;;3.13;;
24147;SDS011;12309;51.450;-2.624;2023-02-28T04:21:51;11.47;;;3.00;;
24147;SDS011;12309;51.450;-2.624;2023-02-28T04:24:19;7.90;;;3.73;;
24147;SDS011;12309;51.450;-2.624;2023-02-28T04:26:51;8.07;;;3.60;;
24147;SDS011;12309;51.450;-2.624;2023-02-28T04:29:20;15.03;;;4.10;;
24147;SDS011;12309;51.450;-2.624;2023-02-28T04:31:48;7.60;;;3.43;;
24147;SDS011;12309;51.450;-2.624;2023-02-28T04:34:13;7.23;;;3.33;;
24147;SDS011;12309;51.450;-2.624;2023-02-28T04:36:39;10.30;;;3.10;;
24147;SDS011;12309;51.450;-2.624;2023-02-28T04:39:05;6.47;;;3.10;;
24147;SDS011;12309;51.450;-2.624;2023-02-28T04:41:31;8.93;;;2.83;;
24147;SDS011;12309;51.450;-2.624;2023-02-28T04:43:56;6.73;;;3.27;;
24147;SDS011;12309;51.450;-2.624;2023-02-28T04:46:22;8.17;;;3.90;;
24147;SDS011;12309;51.450;-2.624;2023-02-28T04:48:48;9.03;;;3.93;;
24147;SDS011;12309;51.450;-2.624;2023-02-28T04:51:15;10.57;;;4.47;;
24147;SDS011;12309;51.450;-2.624;2023-02-28T04:53:41;8.33;;;4.70;;
24147;SDS011;12309;51.450;-2.624;2023-02-28T04:56:09;8.80;;;4.00;;
24147;SDS011;12309;51.450;-2.624;2023-02-28T04:58:37;8.93;;;4.40;;
24147;SDS011;12309;51.450;-2.624;2023-02-28T05:01:03;9.40;;;4.30;;
24147;SDS011;12309;51.450;-2.624;2023-02-28T05:03:37;7.60;;;4.20;;
24147;SDS011;12309;51.450;-2.624;2023-02-28T05:06:10;9.90;;;4.70;;
24147;SDS011;12309;51.450;-2.624;2023-02-28T05:08:36;8.87;;;4.33;;
24147;SDS011;12309;51.450;-2.624;2023-02-28T05:11:02;6.80;;;3.97;;
24147;SDS011;12309;51.450;-2.624;2023-02-28T05:13:29;7.43;;;3.97;;
24147;SDS011;12309;51.450;-2.624;2023-02-28T05:15:55;12.03;;;3.97;;
24147;SDS011;12309;51.450;-2.624;2023-02-28T05:18:21;9.40;;;3.60;;
24147;SDS011;12309;51.450;-2.624;2023-02-28T05:20:47;8.90;;;3.60;;
24147;SDS011;12309;51.450;-2.624;2023-02-28T05:23:13;8.30;;;3.90;;
24147;SDS011;12309;51.450;-2.624;2023-02-28T05:25:40;7.20;;;3.30;;
24147;SDS011;12309;51.450;-2.624;2023-02-28T05:28:06;8.03;;;3.97;;
24147;SDS011;12309;51.450;-2.624;2023-02-28T05:30:32;7.07;;;3.47;;
24147;SDS011;12309;51.450;-2.624;2023-02-28T05:32:58;8.83;;;3.70;;
24147;SDS011;12309;51.450;-2.624;2023-02-28T05:35:24;7.10;;;3.43;;
24147;SDS011;12309;51.450;-2.624;2023-02-28T05:37:50;8.33;;;3.40;;
24147;SDS011;12309;51.450;-2.624;2023-02-28T05:40:17;7.30;;;3.47;;
24147;SDS011;12309;51.450;-2.624;2023-02-28T05:42:42;11.27;;;3.80;;
24147;SDS011;12309;51.450;-2.624;2023-02-28T05:45:08;7.57;;;3.60;;
24147;SDS011;12309;51.450;-2.624;2023-02-28T05:47:34;7.60;;;3.93;;
24147;SDS011;12309;51.450;-2.624;2023-02-28T05:50:00;6.10;;;3.60;;
24147;SDS011;12309;51.450;-2.624;2023-02-28T05:52:26;7.13;;;3.40;;
24147;SDS011;12309;51.450;-2.624;2023-02-28T05:54:53;6.83;;;3.40;;
24147;SDS011;12309;51.450;-2.624;2023-02-28T05:57:18;7.90;;;3.43;;
24147;SDS011;12309;51.450;-2.624;2023-02-28T05:59:44;15.87;;;3.53;;
24147;SDS011;12309;51.450;-2.624;2023-02-28T06:02:14;6.37;;;2.80;;
24147;SDS011;12309;51.450;-2.624;2023-02-28T06:04:41;6.40;;;3.40;;
24147;SDS011;12309;51.450;-2.624;2023-02-28T06:07:08;8.87;;;3.27;;
24147;SDS011;12309;51.450;-2.624;2023-02-28T06:09:34;7.10;;;3.60;;
24147;SDS011;12309;51.450;-2.624;2023-02-28T06:12:00;6.17;;;4.10;;
24147;SDS011;12309;51.450;-2.624;2023-02-28T06:14:34;7.93;;;4.07;;
24147;SDS011;12309;51.450;-2.624;2023-02-28T06:17:01;8.83;;;4.10;;
24147;SDS011;12309;51.450;-2.624;2023-02-28T06:19:28;8.53;;;4.43;;
24147;SDS011;12309;51.450;-2.624;2023-02-28T06:21:55;9.17;;;5.03;;
24147;SDS011;12309;51.450;-2.624;2023-02-28T06:24:22;7.47;;;4.80;;
24147;SDS011;12309;51.450;-2.624;2023-02-28T06:26:49;7.80;;;4.97;;
24147;SDS011;12309;51.450;-2.624;2023-02-28T06:29:15;8.27;;;5.23;;
24147;SDS011;12309;51.450;-2.624;2023-02-28T06:31:42;11.77;;;6.53;;
24147;SDS011;12309;51.450;-2.624;2023-02-28T06:34:09;12.67;;;6.57;;
24147;SDS011;12309;51.450;-2.624;2023-02-28T06:36:36;11.43;;;6.47;;
24147;SDS011;12309;51.450;-2.624;2023-02-28T06:39:05;16.30;;;7.87;;
24147;SDS011;12309;51.450;-2.624;2023-02-28T06:41:31;13.73;;;7.83;;
24147;SDS011;12309;51.450;-2.624;2023-02-28T06:44:10;15.90;;;7.70;;
24147;SDS011;12309;51.450;-2.624;2023-02-28T06:46:38;14.13;;;8.17;;
24147;SDS011;12309;51.450;-2.624;2023-02-28T06:49:05;14.37;;;8.30;;
24147;SDS011;12309;51.450;-2.624;2023-02-28T06:51:33;12.00;;;8.37;;
24147;SDS011;12309;51.450;-2.624;2023-02-28T06:53:59;16.20;;;9.17;;
24147;SDS011;12309;51.450;-2.624;2023-02-28T06:56:24;15.80;;;9.57;;
24147;SDS011;12309;51.450;-2.624;2023-02-28T06:58:50;17.17;;;9.90;;
24147;SDS011;12309;51.450;-2.624;2023-02-28T07:01:17;16.10;;;9.07;;
24147;SDS011;12309;51.450;-2.624;2023-02-28T07:03:44;15.23;;;9.23;;
24147;SDS011;12309;51.450;-2.624;2023-02-28T07:06:10;17.57;;;9.53;;
24147;SDS011;12309;51.450;-2.624;2023-02-28T07:08:36;15.63;;;9.83;;
24147;SDS011;12309;51.450;-2.624;2023-02-28T07:11:02;16.57;;;10.23;;
24147;SDS011;12309;51.450;-2.624;2023-02-28T07:13:28;18.20;;;9.93;;
24147;SDS011;12309;51.450;-2.624;2023-02-28T07:15:58;17.73;;;10.03;;
24147;SDS011;12309;51.450;-2.624;2023-02-28T07:18:26;16.00;;;10.30;;
24147;SDS011;12309;51.450;-2.624;2023-02-28T07:20:51;18.30;;;10.40;;
24147;SDS011;12309;51.450;-2.624;2023-02-28T07:23:17;13.77;;;9.27;;
24147;SDS011;12309;51.450;-2.624;2023-02-28T07:25:44;16.63;;;9.77;;
24147;SDS011;12309;51.450;-2.624;2023-02-28T07:28:10;16.47;;;9.77;;
24147;SDS011;12309;51.450;-2.624;2023-02-28T07:30:36;15.17;;;9.67;;
24147;SDS011;12309;51.450;-2.624;2023-02-28T07:33:02;17.37;;;10.30;;
24147;SDS011;12309;51.450;-2.624;2023-02-28T07:35:28;16.33;;;10.23;;
24147;SDS011;12309;51.450;-2.624;2023-02-28T07:37:54;17.03;;;10.37;;
24147;SDS011;12309;51.450;-2.624;2023-02-28T07:40:21;16.40;;;10.40;;
24147;SDS011;12309;51.450;-2.624;2023-02-28T07:42:47;14.20;;;8.97;;
24147;SDS011;12309;51.450;-2.624;2023-02-28T07:45:12;13.83;;;9.40;;
24147;SDS011;12309;51.450;-2.624;2023-02-28T07:47:38;16.77;;;9.60;;
24147;SDS011;12309;51.450;-2.624;2023-02-28T07:50:05;17.33;;;9.07;;
24147;SDS011;12309;51.450;-2.624;2023-02-28T07:52:32;15.23;;;8.73;;
24147;SDS011;12309;51.450;-2.624;2023-02-28T07:54:58;21.90;;;9.27;;
24147;SDS011;12309;51.450;-2.624;2023-02-28T07:57:23;14.40;;;9.40;;
24147;SDS011;12309;51.450;-2.624;2023-02-28T07:59:49;15.70;;;9.13;;
24147;SDS011;12309;51.450;-2.624;2023-02-28T08:02:17;11.80;;;8.50;;
24147;SDS011;12309;51.450;-2.624;2023-02-28T08:04:44;15.53;;;9.27;;
24147;SDS011;12309;51.450;-2.624;2023-02-28T08:07:12;13.60;;;8.77;;
24147;SDS011;12309;51.450;-2.624;2023-02-28T08:09:41;11.57;;;8.20;;
24147;SDS011;12309;51.450;-2.624;2023-02-28T08:12:08;13.53;;;9.10;;
24147;SDS011;12309;51.450;-2.624;2023-02-28T08:14:34;17.00;;;9.00;;
24147;SDS011;12309;51.450;-2.624;2023-02-28T08:17:00;12.20;;;8.50;;
24147;SDS011;12309;51.450;-2.624;2023-02-28T08:19:27;13.13;;;8.43;;
24147;SDS011;12309;51.450;-2.624;2023-02-28T08:21:53;13.40;;;8.87;;
24147;SDS011;12309;51.450;-2.624;2023-02-28T08:24:19;13.80;;;8.27;;
24147;SDS011;12309;51.450;-2.624;2023-02-28T08:26:45;10.40;;;7.33;;
24147;SDS011;12309;51.450;-2.624;2023-02-28T08:29:10;15.07;;;8.20;;
24147;SDS011;12309;51.450;-2.624;2023-02-28T08:31:36;12.77;;;7.20;;
24147;SDS011;12309;51.450;-2.624;2023-02-28T08:34:06;12.97;;;7.63;;
24147;SDS011;12309;51.450;-2.624;2023-02-28T08:36:32;11.13;;;6.80;;
24147;SDS011;12309;51.450;-2.624;2023-02-28T08:38:58;11.63;;;7.70;;
24147;SDS011;12309;51.450;-2.624;2023-02-28T08:41:24;11.23;;;6.77;;
24147;SDS011;12309;51.450;-2.624;2023-02-28T08:43:50;11.03;;;7.00;;
24147;SDS011;12309;51.450;-2.624;2023-02-28T08:46:16;13.30;;;6.67;;
24147;SDS011;12309;51.450;-2.624;2023-02-28T08:48:42;10.80;;;6.47;;
24147;SDS011;12309;51.450;-2.624;2023-02-28T08:51:10;10.00;;;6.53;;
24147;SDS011;12309;51.450;-2.624;2023-02-28T08:53:39;8.33;;;6.17;;
24147;SDS011;12309;51.450;-2.624;2023-02-28T08:56:09;8.83;;;6.23;;
24147;SDS011;12309;51.450;-2.624;2023-02-28T08:58:39;10.60;;;6.93;;
24147;SDS011;12309;51.450;-2.624;2023-02-28T09:01:12;13.10;;;7.60;;
24147;SDS011;12309;51.450;-2.624;2023-02-28T09:03:40;12.67;;;8.20;;
24147;SDS011;12309;51.450;-2.624;2023-02-28T09:06:07;10.67;;;7.97;;
24147;SDS011;12309;51.450;-2.624;2023-02-28T09:08:33;16.13;;;8.63;;
24147;SDS011;12309;51.450;-2.624;2023-02-28T09:10:59;17.93;;;9.07;;
24147;SDS011;12309;51.450;-2.624;2023-02-28T09:13:26;17.47;;;9.57;;
24147;SDS011;12309;51.450;-2.624;2023-02-28T09:15:53;15.33;;;9.77;;
24147;SDS011;12309;51.450;-2.624;2023-02-28T09:18:19;14.63;;;9.67;;
24147;SDS011;12309;51.450;-2.624;2023-02-28T09:20:45;16.40;;;9.70;;
24147;SDS011;12309;51.450;-2.624;2023-02-28T09:23:12;14.27;;;9.20;;
24147;SDS011;12309;51.450;-2.624;2023-02-28T09:25:37;17.27;;;10.03;;
24147;SDS011;12309;51.450;-2.624;2023-02-28T09:28:09;15.43;;;9.50;;
24147;SDS011;12309;51.450;-2.624;2023-02-28T09:30:36;15.93;;;9.70;;
24147;SDS011;12309;51.450;-2.624;2023-02-28T09:33:02;17.27;;;10.37;;
24147;SDS011;12309;51.450;-2.624;2023-02-28T09:35:28;16.00;;;10.27;;
24147;SDS011;12309;51.450;-2.624;2023-02-28T09:37:55;17.63;;;9.90;;
24147;SDS011;12309;51.450;-2.624;2023-02-28T09:40:23;17.03;;;10.27;;
24147;SDS011;12309;51.450;-2.624;2023-02-28T09:42:52;14.90;;;9.63;;
24147;SDS011;12309;51.450;-2.624;2023-02-28T09:45:25;19.03;;;9.70;;
24147;SDS011;12309;51.450;-2.624;2023-02-28T09:48:06;15.67;;;9.67;;
24147;SDS011;12309;51.450;-2.624;2023-02-28T09:53:04;16.60;;;9.93;;
24147;SDS011;12309;51.450;-2.624;2023-02-28T09:55:42;16.33;;;9.60;;
24147;SDS011;12309;51.450;-2.624;2023-02-28T10:01:37;17.07;;;9.70;;
24147;SDS011;12309;51.450;-2.624;2023-02-28T10:03:56;17.00;;;9.43;;
24147;SDS011;12309;51.450;-2.624;2023-02-28T10:06:35;13.70;;;9.07;;
24147;SDS011;12309;51.450;-2.624;2023-02-28T10:09:15;17.63;;;9.83;;
24147;SDS011;12309;51.450;-2.624;2023-02-28T10:11:56;15.00;;;9.23;;
24147;SDS011;12309;51.450;-2.624;2023-02-28T10:14:27;17.43;;;9.93;;
24147;SDS011;12309;51.450;-2.624;2023-02-28T10:16:56;15.10;;;9.30;;
24147;SDS011;12309;51.450;-2.624;2023-02-28T10:19:33;14.03;;;8.73;;
24147;SDS011;12309;51.450;-2.624;2023-02-28T10:22:04;16.33;;;9.13;;
24147;SDS011;12309;51.450;-2.624;2023-02-28T10:24:43;14.93;;;9.17;;
24147;SDS011;12309;51.450;-2.624;2023-02-28T10:27:16;16.63;;;9.40;;
24147;SDS011;12309;51.450;-2.624;2023-02-28T10:30:05;17.50;;;9.27;;
24147;SDS011;12309;51.450;-2.624;2023-02-28T10:32:32;13.30;;;8.00;;
24147;SDS011;12309;51.450;-2.624;2023-02-28T10:35:00;14.40;;;8.33;;
24147;SDS011;12309;51.450;-2.624;2023-02-28T10:37:47;14.00;;;8.50;;
24147;SDS011;12309;51.450;-2.624;2023-02-28T10:45:39;12.80;;;8.07;;
24147;SDS011;12309;51.450;-2.624;2023-02-28T10:56:34;18.10;;;9.40;;
24147;SDS011;12309;51.450;-2.624;2023-02-28T11:01:14;16.53;;;9.13;;
24147;SDS011;12309;51.450;-2.624;2023-02-28T11:03:59;14.10;;;8.77;;
24147;SDS011;12309;51.450;-2.624;2023-02-28T11:06:26;16.63;;;9.07;;
24147;SDS011;12309;51.450;-2.624;2023-02-28T11:08:58;12.40;;;8.27;;
24147;SDS011;12309;51.450;-2.624;2023-02-28T11:11:25;20.43;;;9.30;;
24147;SDS011;12309;51.450;-2.624;2023-02-28T11:13:54;14.20;;;9.47;;
24147;SDS011;12309;51.450;-2.624;2023-02-28T11:16:30;16.67;;;8.80;;
24147;SDS011;12309;51.450;-2.624;2023-02-28T11:18:58;14.13;;;8.33;;
24147;SDS011;12309;51.450;-2.624;2023-02-28T11:21:26;15.77;;;8.80;;
24147;SDS011;12309;51.450;-2.624;2023-02-28T11:24:02;13.10;;;7.83;;
24147;SDS011;12309;51.450;-2.624;2023-02-28T11:26:35;12.63;;;7.67;;
24147;SDS011;12309;51.450;-2.624;2023-02-28T11:29:03;13.30;;;7.37;;
24147;SDS011;12309;51.450;-2.624;2023-02-28T11:34:35;14.77;;;8.37;;
24147;SDS011;12309;51.450;-2.624;2023-02-28T11:37:02;13.13;;;8.53;;
24147;SDS011;12309;51.450;-2.624;2023-02-28T11:39:30;12.90;;;7.67;;
24147;SDS011;12309;51.450;-2.624;2023-02-28T12:06:57;16.00;;;7.80;;
24147;SDS011;12309;51.450;-2.624;2023-02-28T12:12:20;10.60;;;6.40;;
24147;SDS011;12309;51.450;-2.624;2023-02-28T12:17:48;12.67;;;7.37;;
24147;SDS011;12309;51.450;-2.624;2023-02-28T12:23:17;12.50;;;6.43;;
24147;SDS011;12309;51.450;-2.624;2023-02-28T12:28:35;12.17;;;6.13;;
24147;SDS011;12309;51.450;-2.624;2023-02-28T12:33:33;17.97;;;5.63;;
24147;SDS011;12309;51.450;-2.624;2023-02-28T12:36:05;10.70;;;4.70;;
24147;SDS011;12309;51.450;-2.624;2023-02-28T12:38:47;8.00;;;4.50;;
24147;SDS011;12309;51.450;-2.624;2023-02-28T12:44:22;9.43;;;4.50;;
24147;SDS011;12309;51.450;-2.624;2023-02-28T12:46:53;4.90;;;3.33;;
24147;SDS011;12309;51.450;-2.624;2023-02-28T12:49:27;7.20;;;4.17;;
24147;SDS011;12309;51.450;-2.624;2023-02-28T12:52:06;6.67;;;4.20;;
24147;SDS011;12309;51.450;-2.624;2023-02-28T12:54:38;9.70;;;4.40;;
24147;SDS011;12309;51.450;-2.624;2023-02-28T12:59:57;6.20;;;4.17;;
24147;SDS011;12309;51.450;-2.624;2023-02-28T13:10:50;7.00;;;4.50;;
24147;SDS011;12309;51.450;-2.624;2023-02-28T13:13:20;6.97;;;4.37;;
24147;SDS011;12309;51.450;-2.624;2023-02-28T13:20:57;7.53;;;4.57;;
24147;SDS011;12309;51.450;-2.624;2023-02-28T13:23:39;8.13;;;4.70;;
24147;SDS011;12309;51.450;-2.624;2023-02-28T13:26:05;11.07;;;4.70;;
24147;SDS011;12309;51.450;-2.624;2023-02-28T13:31:15;7.30;;;5.00;;
24147;SDS011;12309;51.450;-2.624;2023-02-28T13:42:10;9.07;;;5.40;;
24147;SDS011;12309;51.450;-2.624;2023-02-28T13:51:48;6.20;;;4.60;;
24147;SDS011;12309;51.450;-2.624;2023-02-28T13:54:24;6.70;;;4.90;;
24147;SDS011;12309;51.450;-2.624;2023-02-28T13:57:00;8.80;;;4.27;;
24147;SDS011;12309;51.450;-2.624;2023-02-28T14:05:41;5.33;;;3.30;;
24147;SDS011;12309;51.450;-2.624;2023-02-28T14:08:11;6.23;;;2.97;;
24147;SDS011;12309;51.450;-2.624;2023-02-28T14:10:46;9.00;;;2.70;;
24147;SDS011;12309;51.450;-2.624;2023-02-28T14:13:36;4.20;;;2.90;;
24147;SDS011;12309;51.450;-2.624;2023-02-28T14:16:09;3.17;;;2.60;;
24147;SDS011;12309;51.450;-2.624;2023-02-28T14:18:40;4.13;;;2.40;;
24147;SDS011;12309;51.450;-2.624;2023-02-28T14:21:14;4.90;;;2.50;;
24147;SDS011;12309;51.450;-2.624;2023-02-28T14:37:29;3.50;;;2.77;;
24147;SDS011;12309;51.450;-2.624;2023-02-28T14:40:04;3.40;;;2.60;;
24147;SDS011;12309;51.450;-2.624;2023-02-28T14:42:37;5.83;;;3.23;;
24147;SDS011;12309;51.450;-2.624;2023-02-28T14:45:16;4.60;;;3.00;;
24147;SDS011;12309;51.450;-2.624;2023-02-28T14:47:44;6.93;;;3.40;;
24147;SDS011;12309;51.450;-2.624;2023-02-28T14:50:22;3.93;;;3.10;;
24147;SDS011;12309;51.450;-2.624;2023-02-28T14:52:52;4.83;;;3.03;;
24147;SDS011;12309;51.450;-2.624;2023-02-28T14:55:20;6.27;;;3.30;;
24147;SDS011;12309;51.450;-2.624;2023-02-28T14:57:55;4.67;;;3.20;;
24147;SDS011;12309;51.450;-2.624;2023-02-28T15:00:28;4.30;;;2.30;;
24147;SDS011;12309;51.450;-2.624;2023-02-28T15:02:58;7.63;;;2.10;;
24147;SDS011;12309;51.450;-2.624;2023-02-28T15:05:30;2.30;;;1.87;;
24147;SDS011;12309;51.450;-2.624;2023-02-28T15:10:40;2.78;;;1.92;;
24147;SDS011;12309;51.450;-2.624;2023-02-28T15:13:15;3.22;;;2.40;;
24147;SDS011;12309;51.450;-2.624;2023-02-28T15:18:23;2.10;;;1.85;;
24147;SDS011;12309;51.450;-2.624;2023-02-28T15:20:55;2.72;;;2.17;;
24147;SDS011;12309;51.450;-2.624;2023-02-28T15:23:22;3.95;;;1.90;;
24147;SDS011;12309;51.450;-2.624;2023-02-28T15:25:48;4.57;;;2.50;;
24147;SDS011;12309;51.450;-2.624;2023-02-28T15:28:17;3.00;;;2.30;;
24147;SDS011;12309;51.450;-2.624;2023-02-28T15:30:51;2.97;;;2.07;;
24147;SDS011;12309;51.450;-2.624;2023-02-28T15:35:46;2.90;;;2.20;;
24147;SDS011;12309;51.450;-2.624;2023-02-28T15:38:25;5.70;;;2.87;;
24147;SDS011;12309;51.450;-2.624;2023-02-28T15:40:52;2.77;;;2.40;;
24147;SDS011;12309;51.450;-2.624;2023-02-28T15:43:24;5.03;;;2.77;;
24147;SDS011;12309;51.450;-2.624;2023-02-28T15:48:44;3.90;;;2.73;;
24147;SDS011;12309;51.450;-2.624;2023-02-28T15:51:55;3.58;;;2.40;;
24147;SDS011;12309;51.450;-2.624;2023-02-28T15:54:05;4.82;;;2.35;;
24147;SDS011;12309;51.450;-2.624;2023-02-28T15:56:42;5.38;;;2.47;;
24147;SDS011;12309;51.450;-2.624;2023-02-28T15:59:14;3.65;;;2.50;;
24147;SDS011;12309;51.450;-2.624;2023-02-28T16:01:43;3.38;;;1.98;;
24147;SDS011;12309;51.450;-2.624;2023-02-28T16:06:43;2.50;;;1.77;;
24147;SDS011;12309;51.450;-2.624;2023-02-28T16:09:13;5.53;;;2.15;;
24147;SDS011;12309;51.450;-2.624;2023-02-28T16:11:42;2.72;;;1.83;;
24147;SDS011;12309;51.450;-2.624;2023-02-28T16:14:31;2.45;;;1.90;;
24147;SDS011;12309;51.450;-2.624;2023-02-28T16:17:02;2.35;;;2.03;;
24147;SDS011;12309;51.450;-2.624;2023-02-28T16:19:48;2.97;;;1.88;;
24147;SDS011;12309;51.450;-2.624;2023-02-28T16:22:13;2.70;;;1.70;;
24147;SDS011;12309;51.450;-2.624;2023-02-28T16:24:39;5.97;;;2.10;;
24147;SDS011;12309;51.450;-2.624;2023-02-28T16:27:05;3.30;;;1.70;;
24147;SDS011;12309;51.450;-2.624;2023-02-28T16:29:32;4.55;;;1.90;;
24147;SDS011;12309;51.450;-2.624;2023-02-28T16:32:03;1.80;;;1.70;;
24147;SDS011;12309;51.450;-2.624;2023-02-28T16:34:30;2.10;;;1.60;;
24147;SDS011;12309;51.450;-2.624;2023-02-28T16:36:56;2.75;;;1.75;;
24147;SDS011;12309;51.450;-2.624;2023-02-28T16:39:22;2.17;;;1.80;;
24147;SDS011;12309;51.450;-2.624;2023-02-28T16:41:48;2.63;;;2.03;;
24147;SDS011;12309;51.450;-2.624;2023-02-28T16:44:24;2.70;;;2.30;;
24147;SDS011;12309;51.450;-2.624;2023-02-28T16:46:58;5.03;;;2.23;;
24147;SDS011;12309;51.450;-2.624;2023-02-28T16:49:25;5.30;;;2.20;;
24147;SDS011;12309;51.450;-2.624;2023-02-28T16:51:50;3.57;;;2.27;;
24147;SDS011;12309;51.450;-2.624;2023-02-28T16:54:16;5.20;;;2.03;;
24147;SDS011;12309;51.450;-2.624;2023-02-28T16:56:43;1.80;;;1.47;;
24147;SDS011;12309;51.450;-2.624;2023-02-28T16:59:10;5.23;;;2.07;;
24147;SDS011;12309;51.450;-2.624;2023-02-28T17:01:37;2.90;;;2.13;;
24147;SDS011;12309;51.450;-2.624;2023-02-28T17:04:03;3.57;;;2.30;;
24147;SDS011;12309;51.450;-2.624;2023-02-28T17:06:29;4.57;;;2.80;;
24147;SDS011;12309;51.450;-2.624;2023-02-28T17:08:55;4.00;;;2.43;;
24147;SDS011;12309;51.450;-2.624;2023-02-28T17:11:22;4.57;;;2.23;;
24147;SDS011;12309;51.450;-2.624;2023-02-28T17:13:49;5.23;;;2.37;;
24147;SDS011;12309;51.450;-2.624;2023-02-28T17:16:17;3.73;;;2.37;;
24147;SDS011;12309;51.450;-2.624;2023-02-28T17:18:57;4.37;;;2.20;;
24147;SDS011;12309;51.450;-2.624;2023-02-28T17:21:24;3.57;;;2.20;;
24147;SDS011;12309;51.450;-2.624;2023-02-28T17:23:50;3.97;;;1.87;;
24147;SDS011;12309;51.450;-2.624;2023-02-28T17:26:16;3.67;;;2.50;;
24147;SDS011;12309;51.450;-2.624;2023-02-28T17:28:45;4.67;;;2.60;;